LFKJLFKB

Guest
Details From LFKJ - Napoleon Bonaparte
To LFKB - Bastia Poretta
Flight Number -
Tags decoded
Created
Modified
Stats Distance 56 nm / 104 km
Max Altitude 0 ft / 0 m
Waypoints 3
Social Downloads 10
Likes 0
Share VATSIM

Download

Looking for another format? Having issues loading an existing format? Contact us
Advertisement - Login to hide

Notes

Requested: LFKJ BREMO LFKB

Route

LFKJ BREMO LFKB

ID Type Via Altitude Latitude Longitude Leg Dist Tot Dist Heading (true) Name
O LFKJ APT - 0 ft / 0 m 41.92289˚ 8.79959˚ - 0 nm - Napoleon Bonaparte
BREMO FIX - 0 ft / 0 m 42.33333˚ 9.57694˚ 42 nm 42 nm 54° / 55° -
O LFKB APT - 0 ft / 0 m 42.55251˚ 9.48371˚ 13 nm 56 nm 343° / 343° Bastia Poretta

Altitude Profile

Advertisement - Login to hide

LFKJ

Details ICAO LFKJ (AJA)
Name Napoleon Bonaparte
Region France
Timezone Europe/Paris (UTC+1.0)
Stats Elevation 18 ft / 5 m (AMSL)
Location 41.922886° 8.799587°
Runways 2
Magnetic Variation 2.328° E

METAR

LFKJ 110400Z AUTO 18018KT 9999 BKN027/// BKN034/// OVC064/// 16/12 Q1002 TEMPO 4000 RA BR BKN010 BKN020 BKN040 BECMG 19015G25KT

Decode

TAF

TAF LFKJ 110200Z 1103/1203 19015G25KT 9000 BKN018 BKN030 TEMPO 1103/1108 4000 RA BR BKN010 BKN020 BKN040 BECMG 1120/1122 RA

Decode

Departure Runways

ID Width Length Bearing (true) Bearing (mag) Surface Threshold Offset Overrun Length
02 180 ft / 55 m 7,899 ft / 2,408 m 24.94° 22.61° Asphalt 0 ft / 0 m 164 ft / 50 m
10 98 ft / 30 m 3,447 ft / 1,051 m 94.35° 92.02° Concrete 0 ft / 0 m 164 ft / 50 m
20 180 ft / 55 m 7,899 ft / 2,408 m 204.95° 202.62° Asphalt 745 ft / 227 m 230 ft / 70 m
28 98 ft / 30 m 3,447 ft / 1,051 m 274.36° 272.03° Concrete 213 ft / 65 m 0 ft / 0 m

LFKB

Details ICAO LFKB (BIA)
Name Bastia Poretta
Region France
Timezone Europe/Paris (UTC+1.0)
Stats Elevation 25 ft / 8 m (AMSL)
Location 42.552508° 9.483709°
Runways 1
Magnetic Variation 2.484° E

METAR

LFKB 110400Z 17005KT 140V210 9999 FEW020 SCT063 BKN093 14/10 Q0999 NOSIG

Decode

TAF

TAF TAF LFKB 110200Z 1103/1203 26003KT 9999 FEW020 SCT080 BKN260 BECMG 1103/1104 18010KT BECMG 1104/1106 18020G35KT BECMG 1118/1120 18015G25KT BECMG 1122/1124 18010KT BECMG 1201/1203 36010KT TX18/1112Z TN09/1203Z

Decode

Destination Runways

ID Width Length Bearing (true) Bearing (mag) Surface Threshold Offset Overrun Length
16 148 ft / 45 m 8,273 ft / 2,522 m 162.83° 160.35° Concrete 0 ft / 0 m 131 ft / 40 m
34 148 ft / 45 m 8,273 ft / 2,522 m 342.84° 340.36° Concrete 0 ft / 0 m 0 ft / 0 m

Approach Navaids

Runway Type Ident Frequency Range Bearing (true) Bearing (mag) Slope Elevation
34 Localiser BP 111.35 MHz 27 nm / 50 km 342.81° 340.33° - 25 ft / 8 m (AMSL)
34 Glidescope BP 111.35 MHz 27 nm / 50 km 342.81° 340.33° 3.00° 25 ft / 8 m (AMSL)
34 DME BP 111.35 MHz 18 nm / 33 km - - - 69 ft / 21 m (AMSL)

Popular Alternatives